sensor_id;sensor_type;location;lat;lon;timestamp;P1;durP1;ratioP1;P2;durP2;ratioP2
35757;SDS011;21879;50.110;18.900;2023-12-20T00:05:08;5.80;;;4.40;;
35757;SDS011;21879;50.110;18.900;2023-12-20T00:15:36;6.90;;;4.80;;
35757;SDS011;21879;50.110;18.900;2023-12-20T00:26:04;7.30;;;4.80;;
35757;SDS011;21879;50.110;18.900;2023-12-20T00:36:31;6.60;;;4.10;;
35757;SDS011;21879;50.110;18.900;2023-12-20T00:46:58;5.90;;;4.20;;
35757;SDS011;21879;50.110;18.900;2023-12-20T00:57:26;5.70;;;3.70;;
35757;SDS011;21879;50.110;18.900;2023-12-20T01:07:54;7.30;;;4.10;;
35757;SDS011;21879;50.110;18.900;2023-12-20T01:18:21;4.20;;;3.20;;
35757;SDS011;21879;50.110;18.900;2023-12-20T01:28:48;5.00;;;3.70;;
35757;SDS011;21879;50.110;18.900;2023-12-20T01:39:16;4.50;;;3.40;;
35757;SDS011;21879;50.110;18.900;2023-12-20T01:49:53;4.70;;;3.00;;
35757;SDS011;21879;50.110;18.900;2023-12-20T02:00:21;4.80;;;3.10;;
35757;SDS011;21879;50.110;18.900;2023-12-20T02:10:51;5.90;;;3.00;;
35757;SDS011;21879;50.110;18.900;2023-12-20T02:21:19;4.40;;;3.10;;
35757;SDS011;21879;50.110;18.900;2023-12-20T02:31:50;4.10;;;3.00;;
35757;SDS011;21879;50.110;18.900;2023-12-20T02:42:17;4.20;;;2.80;;
35757;SDS011;21879;50.110;18.900;2023-12-20T02:52:45;4.90;;;3.20;;
35757;SDS011;21879;50.110;18.900;2023-12-20T03:03:13;4.70;;;2.80;;
35757;SDS011;21879;50.110;18.900;2023-12-20T03:13:40;4.10;;;3.50;;
35757;SDS011;21879;50.110;18.900;2023-12-20T03:24:07;5.00;;;3.00;;
35757;SDS011;21879;50.110;18.900;2023-12-20T03:34:35;5.50;;;3.50;;
35757;SDS011;21879;50.110;18.900;2023-12-20T03:45:03;5.90;;;3.60;;
35757;SDS011;21879;50.110;18.900;2023-12-20T03:55:31;5.80;;;3.20;;
35757;SDS011;21879;50.110;18.900;2023-12-20T04:05:59;5.50;;;3.60;;
35757;SDS011;21879;50.110;18.900;2023-12-20T04:16:26;6.30;;;4.10;;
35757;SDS011;21879;50.110;18.900;2023-12-20T04:26:54;5.90;;;3.80;;
35757;SDS011;21879;50.110;18.900;2023-12-20T04:37:21;4.60;;;3.80;;
35757;SDS011;21879;50.110;18.900;2023-12-20T04:47:49;4.70;;;3.60;;
35757;SDS011;21879;50.110;18.900;2023-12-20T04:58:16;6.40;;;3.20;;
35757;SDS011;21879;50.110;18.900;2023-12-20T05:08:43;4.90;;;3.30;;
35757;SDS011;21879;50.110;18.900;2023-12-20T05:19:11;6.40;;;4.10;;
35757;SDS011;21879;50.110;18.900;2023-12-20T05:29:38;5.10;;;3.00;;
35757;SDS011;21879;50.110;18.900;2023-12-20T05:40:07;5.90;;;3.90;;
35757;SDS011;21879;50.110;18.900;2023-12-20T05:50:35;5.70;;;3.80;;
35757;SDS011;21879;50.110;18.900;2023-12-20T06:01:02;4.90;;;3.20;;
35757;SDS011;21879;50.110;18.900;2023-12-20T06:11:32;6.50;;;3.80;;
35757;SDS011;21879;50.110;18.900;2023-12-20T06:21:59;4.20;;;2.80;;
35757;SDS011;21879;50.110;18.900;2023-12-20T06:32:27;5.10;;;2.90;;
35757;SDS011;21879;50.110;18.900;2023-12-20T06:42:54;5.10;;;3.10;;
35757;SDS011;21879;50.110;18.900;2023-12-20T06:53:35;5.10;;;3.20;;
35757;SDS011;21879;50.110;18.900;2023-12-20T07:04:03;4.80;;;3.40;;
35757;SDS011;21879;50.110;18.900;2023-12-20T07:14:31;4.40;;;2.90;;
35757;SDS011;21879;50.110;18.900;2023-12-20T07:24:58;6.40;;;4.30;;
35757;SDS011;21879;50.110;18.900;2023-12-20T07:35:26;5.80;;;4.30;;
35757;SDS011;21879;50.110;18.900;2023-12-20T07:45:54;6.60;;;4.30;;
35757;SDS011;21879;50.110;18.900;2023-12-20T07:56:21;4.30;;;3.20;;
35757;SDS011;21879;50.110;18.900;2023-12-20T08:06:48;4.70;;;3.50;;
35757;SDS011;21879;50.110;18.900;2023-12-20T08:17:16;4.70;;;3.00;;
35757;SDS011;21879;50.110;18.900;2023-12-20T08:27:44;6.20;;;3.60;;
35757;SDS011;21879;50.110;18.900;2023-12-20T08:38:11;5.00;;;3.00;;
35757;SDS011;21879;50.110;18.900;2023-12-20T08:48:39;5.70;;;3.20;;
35757;SDS011;21879;50.110;18.900;2023-12-20T08:59:07;5.90;;;3.00;;
35757;SDS011;21879;50.110;18.900;2023-12-20T09:09:35;4.60;;;3.40;;
35757;SDS011;21879;50.110;18.900;2023-12-20T09:20:02;5.30;;;3.40;;
35757;SDS011;21879;50.110;18.900;2023-12-20T09:30:33;7.40;;;6.00;;
35757;SDS011;21879;50.110;18.900;2023-12-20T09:41:04;8.30;;;6.30;;
35757;SDS011;21879;50.110;18.900;2023-12-20T09:51:32;7.10;;;5.10;;
35757;SDS011;21879;50.110;18.900;2023-12-20T10:02:00;11.00;;;7.40;;
35757;SDS011;21879;50.110;18.900;2023-12-20T10:12:34;9.20;;;7.00;;
35757;SDS011;21879;50.110;18.900;2023-12-20T10:23:01;14.10;;;10.50;;
35757;SDS011;21879;50.110;18.900;2023-12-20T10:33:29;11.20;;;8.90;;
35757;SDS011;21879;50.110;18.900;2023-12-20T10:43:58;11.70;;;9.20;;
35757;SDS011;21879;50.110;18.900;2023-12-20T10:54:27;39.60;;;32.00;;
35757;SDS011;21879;50.110;18.900;2023-12-20T11:04:56;25.00;;;21.30;;
35757;SDS011;21879;50.110;18.900;2023-12-20T11:15:33;17.40;;;14.60;;
35757;SDS011;21879;50.110;18.900;2023-12-20T11:26:01;14.50;;;11.60;;
35757;SDS011;21879;50.110;18.900;2023-12-20T11:36:32;13.50;;;10.30;;
35757;SDS011;21879;50.110;18.900;2023-12-20T11:47:00;15.20;;;10.10;;
35757;SDS011;21879;50.110;18.900;2023-12-20T11:57:28;12.40;;;10.00;;
35757;SDS011;21879;50.110;18.900;2023-12-20T12:07:56;11.90;;;9.00;;
35757;SDS011;21879;50.110;18.900;2023-12-20T12:18:24;15.80;;;13.70;;
35757;SDS011;21879;50.110;18.900;2023-12-20T12:28:52;15.10;;;10.40;;
35757;SDS011;21879;50.110;18.900;2023-12-20T12:39:20;12.70;;;9.60;;
35757;SDS011;21879;50.110;18.900;2023-12-20T12:49:51;11.50;;;9.50;;
35757;SDS011;21879;50.110;18.900;2023-12-20T13:00:19;60.70;;;49.70;;
35757;SDS011;21879;50.110;18.900;2023-12-20T13:10:48;25.70;;;20.40;;
35757;SDS011;21879;50.110;18.900;2023-12-20T13:21:15;40.30;;;33.20;;
35757;SDS011;21879;50.110;18.900;2023-12-20T13:31:43;22.40;;;17.80;;
35757;SDS011;21879;50.110;18.900;2023-12-20T13:42:11;51.90;;;42.80;;
35757;SDS011;21879;50.110;18.900;2023-12-20T13:52:39;28.80;;;25.70;;
35757;SDS011;21879;50.110;18.900;2023-12-20T14:03:07;23.50;;;21.00;;
35757;SDS011;21879;50.110;18.900;2023-12-20T14:13:36;24.30;;;19.00;;
35757;SDS011;21879;50.110;18.900;2023-12-20T14:24:06;22.00;;;18.60;;
35757;SDS011;21879;50.110;18.900;2023-12-20T14:34:34;21.70;;;17.30;;
35757;SDS011;21879;50.110;18.900;2023-12-20T14:45:03;20.00;;;16.60;;
35757;SDS011;21879;50.110;18.900;2023-12-20T14:55:32;17.80;;;15.90;;
35757;SDS011;21879;50.110;18.900;2023-12-20T15:06:00;16.80;;;14.30;;
35757;SDS011;21879;50.110;18.900;2023-12-20T15:16:28;17.30;;;14.60;;
35757;SDS011;21879;50.110;18.900;2023-12-20T15:26:56;16.20;;;13.30;;
35757;SDS011;21879;50.110;18.900;2023-12-20T15:37:24;17.50;;;13.10;;
35757;SDS011;21879;50.110;18.900;2023-12-20T15:47:52;13.90;;;12.40;;
35757;SDS011;21879;50.110;18.900;2023-12-20T15:58:19;13.50;;;12.00;;
35757;SDS011;21879;50.110;18.900;2023-12-20T16:08:47;14.00;;;10.80;;
35757;SDS011;21879;50.110;18.900;2023-12-20T16:19:14;12.70;;;10.80;;
35757;SDS011;21879;50.110;18.900;2023-12-20T16:29:42;14.60;;;10.80;;
35757;SDS011;21879;50.110;18.900;2023-12-20T16:40:10;12.80;;;10.90;;
35757;SDS011;21879;50.110;18.900;2023-12-20T16:50:38;12.70;;;10.60;;
35757;SDS011;21879;50.110;18.900;2023-12-20T17:01:06;13.40;;;10.90;;
35757;SDS011;21879;50.110;18.900;2023-12-20T17:11:35;12.30;;;10.40;;
35757;SDS011;21879;50.110;18.900;2023-12-20T17:22:04;10.40;;;8.90;;
35757;SDS011;21879;50.110;18.900;2023-12-20T17:32:33;11.90;;;9.60;;
35757;SDS011;21879;50.110;18.900;2023-12-20T17:43:02;13.30;;;9.80;;
35757;SDS011;21879;50.110;18.900;2023-12-20T17:53:29;10.80;;;8.70;;
35757;SDS011;21879;50.110;18.900;2023-12-20T18:03:57;15.90;;;10.50;;
35757;SDS011;21879;50.110;18.900;2023-12-20T18:14:25;15.70;;;9.70;;
35757;SDS011;21879;50.110;18.900;2023-12-20T18:24:52;13.00;;;8.90;;
35757;SDS011;21879;50.110;18.900;2023-12-20T18:35:20;10.70;;;8.30;;
35757;SDS011;21879;50.110;18.900;2023-12-20T18:45:48;9.40;;;7.30;;
35757;SDS011;21879;50.110;18.900;2023-12-20T18:56:16;12.40;;;7.60;;
35757;SDS011;21879;50.110;18.900;2023-12-20T19:06:44;8.30;;;5.90;;
35757;SDS011;21879;50.110;18.900;2023-12-20T19:17:12;10.20;;;6.20;;
35757;SDS011;21879;50.110;18.900;2023-12-20T19:27:40;10.70;;;6.10;;
35757;SDS011;21879;50.110;18.900;2023-12-20T19:38:08;12.40;;;7.60;;
35757;SDS011;21879;50.110;18.900;2023-12-20T19:48:37;9.50;;;6.10;;
35757;SDS011;21879;50.110;18.900;2023-12-20T19:59:05;10.00;;;6.60;;
35757;SDS011;21879;50.110;18.900;2023-12-20T20:09:32;12.50;;;6.00;;
35757;SDS011;21879;50.110;18.900;2023-12-20T20:20:00;7.50;;;5.70;;
35757;SDS011;21879;50.110;18.900;2023-12-20T20:30:28;65.50;;;45.20;;
35757;SDS011;21879;50.110;18.900;2023-12-20T20:40:56;64.40;;;32.00;;
35757;SDS011;21879;50.110;18.900;2023-12-20T20:51:24;58.80;;;33.20;;
35757;SDS011;21879;50.110;18.900;2023-12-20T21:01:52;50.60;;;34.50;;
35757;SDS011;21879;50.110;18.900;2023-12-20T21:12:20;52.80;;;32.80;;
35757;SDS011;21879;50.110;18.900;2023-12-20T21:22:50;43.80;;;26.80;;
35757;SDS011;21879;50.110;18.900;2023-12-20T21:33:17;49.20;;;30.40;;
35757;SDS011;21879;50.110;18.900;2023-12-20T21:43:45;49.40;;;30.90;;
35757;SDS011;21879;50.110;18.900;2023-12-20T21:54:13;55.10;;;37.50;;
35757;SDS011;21879;50.110;18.900;2023-12-20T22:04:41;50.50;;;35.10;;
35757;SDS011;21879;50.110;18.900;2023-12-20T22:15:10;51.00;;;31.10;;
35757;SDS011;21879;50.110;18.900;2023-12-20T22:25:38;43.90;;;26.90;;
35757;SDS011;21879;50.110;18.900;2023-12-20T22:36:06;37.20;;;26.70;;
35757;SDS011;21879;50.110;18.900;2023-12-20T22:46:36;32.60;;;23.10;;
35757;SDS011;21879;50.110;18.900;2023-12-20T22:57:05;30.60;;;21.10;;
35757;SDS011;21879;50.110;18.900;2023-12-20T23:07:33;28.20;;;19.10;;
35757;SDS011;21879;50.110;18.900;2023-12-20T23:18:02;30.10;;;18.70;;
35757;SDS011;21879;50.110;18.900;2023-12-20T23:28:30;29.90;;;17.80;;
35757;SDS011;21879;50.110;18.900;2023-12-20T23:38:58;41.70;;;29.70;;
35757;SDS011;21879;50.110;18.900;2023-12-20T23:49:26;45.80;;;32.00;;
35757;SDS011;21879;50.110;18.900;2023-12-20T23:59:54;47.60;;;30.70;;
